• Join FlightAware (Why Join?)
  • Login
  • US Flag 
 
07:32PM EST


 

Airport Tracker/Info


-or-


 

Live Flight TrackerFlight Track Log ✈ CSN3768 ✈ 29-Apr-2012 ✈ ZUGY / KWE - ZGSD / ZUH

Flight Track Log - Related Links

Times and Time Zones

All times are in EDT time to prevent confusion due to time zone crossing. See the CSN3768 flight status page for this flight to view local times or setup timezone preferences in your user account.

Time Position Orientation Groundspeed Altitude Reporting Facility
EDT Latitude Longitude Course Direction KTS MPH feet Rate Location/Type
10:45AM 25.4133 108.5187 126° Southeast  Level Estimated
10:46AM 25.3388 108.6302 126° Southeast  Level Estimated
10:47AM 25.2642 108.7416 127° Southeast  Level Estimated
10:48AM 25.1896 108.8528 127° Southeast  Level Estimated
10:49AM 25.1148 108.9639 127° Southeast  Level Estimated
10:50AM 25.0400 109.0749 127° Southeast  Level Estimated
10:51AM 24.9651 109.1857 127° Southeast  Level Estimated
10:52AM 24.8901 109.2964 127° Southeast  Level Estimated
10:53AM 24.8150 109.4070 127° Southeast  Level Estimated
10:54AM 24.7399 109.5174 127° Southeast  Level Estimated
10:55AM 24.6647 109.6277 127° Southeast  Level Estimated
10:56AM 24.5893 109.7379 127° Southeast  Level Estimated
10:57AM 24.5140 109.8479 127° Southeast  Level Estimated
10:58AM 24.4385 109.9578 127° Southeast  Level Estimated
10:59AM 24.3629 110.0676 127° Southeast  Level Estimated
11:00AM 24.2873 110.1772 127° Southeast  Level Estimated
11:01AM 24.2116 110.2867 127° Southeast  Level Estimated
11:02AM 24.1358 110.3961 127° Southeast  Level Estimated
11:03AM 24.0600 110.5053 127° Southeast  Level Estimated
11:04AM 23.9840 110.6144 127° Southeast  Level Estimated
11:05AM 23.9080 110.7234 127° Southeast  Level Estimated
11:06AM 23.8319 110.8323 127° Southeast  Level Estimated
11:07AM 23.7557 110.9410 127° Southeast  Level Estimated
11:08AM 23.6795 111.0496 128° Southeast  Level Estimated
11:09AM 23.6032 111.1581 128° Southeast  Level Estimated
11:10AM 23.5268 111.2664 128° Southeast  Level Estimated
11:11AM 23.4503 111.3747 128° Southeast  Level Estimated
11:12AM 23.3738 111.4828 128° Southeast  Level Estimated
11:13AM 23.2971 111.5908 128° Southeast  Level Estimated
11:14AM 23.2205 111.6986 128° Southeast  Level Estimated
11:15AM 23.1437 111.8063 128° Southeast  Level Estimated
11:16AM 23.0669 111.9139 128° Southeast  Level Estimated
11:17AM 22.9899 112.0214 128° Southeast  Level Estimated
11:18AM 22.9130 112.1288 128° Southeast  Level Estimated
11:19AM 22.8359 112.2360 128° Southeast  Level Estimated
11:20AM 22.7588 112.3431 128° Southeast  Level Estimated
11:21AM 22.6816 112.4501 128° Southeast  Level Estimated
11:22AM 22.6043 112.5570 128° Southeast  Level Estimated
11:23AM 22.5270 112.6638 128° Southeast  Level Estimated
11:24AM 22.4496 112.7704 128° Southeast  Level Estimated
11:25AM 22.3721 112.8769 128° Southeast  Level Estimated
11:26AM 22.2945 112.9833 128° Southeast  Level Estimated
11:27AM 22.2169 113.0896 128° Southeast  Level Estimated
11:28AM 22.1392 113.1958 128° Southeast  Level Estimated
11:29AM 22.0614 113.3018 128° Southeast  Level Estimated
11:30AM 21.9836 113.4077 308° West  Level Estimated
11:31AM 22.0614 113.3018 128° Southeast  Level Estimated
11:32AM 21.9836 113.4077 308° West  Level Estimated
11:33AM 22.0614 113.3018 128° Southeast  Level Estimated
11:34AM 21.9836 113.4077 308° West  Level Estimated
11:35AM 22.0614 113.3018 128° Southeast  Level Estimated
11:36AM 21.9836 113.4077 308° West  Level Estimated
11:37AM 22.0614 113.3018 128° Southeast  Level Estimated
11:38AM 21.9836 113.4077 308° West  Level Estimated
11:39AM 22.0614 113.3018 128° Southeast  Level Estimated
11:40AM 21.9836 113.4077 308° West  Level Estimated
11:41AM 22.0614 113.3018 128° Southeast  Level Estimated
11:42AM 21.9836 113.4077 308° West  Level Estimated
11:43AM 22.0614 113.3018 308° West  Level Estimated